Time;durP1;ratioP1;P1;durP2;ratioP2;P2;SDS_P1;SDS_P2;PMS_P1;PMS_P2;Temp;Humidity;BMP_temperature;BMP_pressure;BME280_temperature;BME280_humidity;BME280_pressure;Samples;Min_cycle;Max_cycle;Signal;HPM_P1;HPM_P2
2021/10/10 00:02:01;;;;;;;8.05;6.10;;;;;;;30.48;73.60;100622.88;5080568;27;66024;-37
2021/10/10 00:04:32;;;;;;;5.90;5.32;;;;;;;30.50;73.88;100626.16;5082138;27;69411;-37
2021/10/10 00:07:03;;;;;;;20.77;6.83;;;;;;;30.47;74.41;100632.84;5078313;27;66305;-37
2021/10/10 00:09:34;;;;;;;9.82;6.10;;;;;;;30.49;73.68;100629.94;5073709;27;68723;-37
2021/10/10 00:12:06;;;;;;;7.32;6.57;;;;;;;30.47;74.23;100632.84;5077133;27;66408;-37
2021/10/10 00:14:38;;;;;;;8.05;6.45;;;;;;;30.50;74.14;100645.13;5060374;27;69517;-37
2021/10/10 00:17:25;;;;;;;6.82;6.15;;;;;;;30.40;73.71;100637.53;5074643;27;65277;-37
2021/10/10 00:19:58;;;;;;;7.65;5.78;;;;;;;30.51;73.68;100644.09;5059408;27;69973;-38
2021/10/10 00:22:28;;;;;;;6.25;5.75;;;;;;;30.52;74.24;100637.59;5069035;27;65622;-37
2021/10/10 00:24:59;;;;;;;6.57;6.00;;;;;;;30.48;74.03;100645.34;5076146;27;70266;-37
2021/10/10 00:27:30;;;;;;;15.30;5.68;;;;;;;30.44;73.67;100637.91;5076130;27;66603;-37
2021/10/10 00:30:03;;;;;;;6.40;6.00;;;;;;;30.53;74.17;100660.09;5085719;27;70529;-37
2021/10/10 00:32:36;;;;;;;8.65;6.18;;;;;;;30.54;73.60;100659.88;5087717;27;65321;-37
2021/10/10 00:35:09;;;;;;;6.22;5.63;;;;;;;30.49;73.91;100659.72;5074999;27;69071;-37
2021/10/10 00:37:41;;;;;;;7.57;6.57;;;;;;;30.53;73.50;100669.03;5076999;27;66679;-37
2021/10/10 00:40:14;;;;;;;6.30;5.63;;;;;;;30.55;73.61;100676.94;5059802;27;70582;-37
2021/10/10 00:42:45;;;;;;;8.65;6.80;;;;;;;30.52;73.87;100678.22;5073091;27;65732;-37
2021/10/10 00:45:16;;;;;;;12.80;6.10;;;;;;;30.41;74.20;100670.81;5080328;27;70885;-37
2021/10/10 00:47:49;;;;;;;8.73;6.80;;;;;;;30.48;73.80;100683.25;5076366;27;65614;-38
2021/10/10 00:50:20;;;;;;;18.67;8.45;;;;;;;30.48;74.55;100687.84;5045716;27;70272;-37
2021/10/10 00:52:59;;;;;;;9.93;6.82;;;;;;;30.43;73.87;100688.50;5076852;27;66629;-37
2021/10/10 00:55:34;;;;;;;9.68;6.78;;;;;;;30.53;74.19;100696.09;5076067;27;69449;-37
2021/10/10 00:58:06;;;;;;;12.00;6.78;;;;;;;30.31;73.80;100654.25;5076771;27;67399;-37
2021/10/10 01:00:40;;;;;;;6.85;6.25;;;;;;;30.53;74.11;100687.97;5082906;27;69428;-37
2021/10/10 01:03:18;;;;;;;7.15;6.55;;;;;;;30.55;74.21;100685.88;5077754;27;66019;-37
2021/10/10 01:05:55;;;;;;;9.05;6.38;;;;;;;30.55;74.09;100685.88;5048383;28;69370;-37
2021/10/10 01:08:36;;;;;;;6.65;6.05;;;;;;;30.57;74.20;100686.50;5050326;27;66046;-37
2021/10/10 01:11:36;;;;;;;7.32;5.80;;;;;;;30.18;73.77;100645.19;5071925;27;69948;-37
2021/10/10 01:14:17;;;;;;;9.00;6.00;;;;;;;30.56;73.65;100695.66;5074106;27;66456;-37
2021/10/10 01:17:32;;;;;;;6.00;5.50;;;;;;;30.46;73.80;100684.53;5072963;27;70327;-37
2021/10/10 01:20:13;;;;;;;6.72;6.03;;;;;;;30.58;73.95;100696.25;5077033;27;65133;-37
2021/10/10 01:23:08;;;;;;;6.55;5.82;;;;;;;30.59;73.93;100687.09;5089488;27;70977;-37
2021/10/10 01:25:47;;;;;;;8.77;6.38;;;;;;;30.62;74.11;100694.78;5071685;27;65460;-37
2021/10/10 01:28:33;;;;;;;6.55;5.95;;;;;;;30.63;73.96;100691.00;5076890;27;69613;-37
2021/10/10 01:31:14;;;;;;;6.35;5.10;;;;;;;30.63;74.08;100696.44;5022370;27;64729;-37
2021/10/10 01:33:53;;;;;;;7.13;5.47;;;;;;;30.43;73.62;100657.91;5077773;27;70274;-37
2021/10/10 01:36:35;;;;;;;5.95;5.38;;;;;;;30.67;73.40;100702.22;5076932;27;65133;-37
2021/10/10 01:39:35;;;;;;;5.95;5.32;;;;;;;30.66;74.15;100701.38;5047922;27;70501;-37
2021/10/10 01:42:33;;;;;;;6.47;5.10;;;;;;;30.63;73.59;100699.13;5115015;27;66091;-36
2021/10/10 01:45:29;;;;;;;6.25;5.25;;;;;;;30.39;74.32;100649.38;5063292;27;70706;-37
2021/10/10 01:48:16;;;;;;;10.55;5.95;;;;;;;30.65;75.62;100694.34;5071323;27;65426;-37
2021/10/10 01:51:02;;;;;;;6.85;5.55;;;;;;;30.68;74.93;100691.19;5075419;27;69771;-38
2021/10/10 01:54:02;;;;;;;8.30;5.03;;;;;;;30.70;74.06;100697.19;5054706;27;65216;-37
2021/10/10 01:57:13;;;;;;;5.82;4.55;;;;;;;30.72;74.58;100705.91;5071274;27;70459;-38
2021/10/10 02:00:10;;;;;;;8.90;4.43;;;;;;;30.59;73.88;100679.00;5078167;27;66354;-38
2021/10/10 02:03:07;;;;;;;8.38;5.10;;;;;;;30.76;73.87;100700.03;5066066;27;70483;-37
2021/10/10 02:06:01;;;;;;;7.45;4.95;;;;;;;30.49;74.36;100651.59;5073972;27;65896;-37
2021/10/10 02:09:29;;;;;;;6.80;4.78;;;;;;;30.78;74.43;100700.66;5075871;27;69913;-37
2021/10/10 02:12:27;;;;;;;;;;;;;;;30.50;75.21;100702.78;5081173;27;65233;-37
2021/10/10 02:15:28;;;;;;;5.05;4.60;;;;;;;30.79;74.20;100705.03;5042568;27;70619;-37
2021/10/10 02:18:13;;;;;;;4.90;4.40;;;;;;;30.83;73.82;100706.25;5073640;27;66468;-37
2021/10/10 02:21:02;;;;;;;11.15;5.68;;;;;;;30.79;74.14;100702.34;5049401;27;70103;-37
2021/10/10 02:23:54;;;;;;;15.20;5.15;;;;;;;30.78;74.11;100703.38;5066952;27;65806;-37
2021/10/10 02:26:50;;;;;;;5.80;5.20;;;;;;;30.79;74.35;100715.88;5070140;27;70036;-37
2021/10/10 02:29:55;;;;;;;8.32;5.20;;;;;;;30.67;75.06;100708.47;5064625;27;65568;-36
2021/10/10 02:32:45;;;;;;;7.50;5.40;;;;;;;30.75;75.56;100709.22;5057566;27;70271;-37
2021/10/10 02:35:36;;;;;;;10.93;5.40;;;;;;;30.72;74.90;100705.09;5055791;27;66327;-37
2021/10/10 02:38:21;;;;;;;6.10;5.50;;;;;;;30.70;76.09;100705.31;5063056;27;70277;-37
2021/10/10 02:40:55;;;;;;;11.38;6.22;;;;;;;30.71;75.95;100698.84;5045025;27;66132;-37
2021/10/10 02:43:38;;;;;;;11.63;5.57;;;;;;;30.72;76.13;100689.66;5035525;27;69535;-38
2021/10/10 02:46:22;;;;;;;8.93;5.60;;;;;;;30.76;76.15;100697.34;5066019;27;65472;-37
2021/10/10 02:49:12;;;;;;;10.60;5.22;;;;;;;30.77;75.48;100694.41;5066178;27;69529;-38
2021/10/10 02:51:58;;;;;;;7.68;5.13;;;;;;;30.78;75.75;100693.34;5067905;27;66291;-39
2021/10/10 02:54:45;;;;;;;13.18;4.88;;;;;;;30.74;75.68;100670.50;5064969;27;69198;-37
2021/10/10 02:57:27;;;;;;;5.90;4.13;;;;;;;30.80;75.34;100682.34;5072994;27;65608;-37
2021/10/10 03:00:01;;;;;;;7.35;3.63;;;;;;;30.79;73.22;100683.38;5056636;27;70526;-37
2021/10/10 03:02:50;;;;;;;4.53;3.22;;;;;;;30.78;73.89;100676.28;5057714;27;65185;-37
2021/10/10 03:05:47;;;;;;;10.55;3.47;;;;;;;30.81;73.87;100681.28;5069693;27;70551;-37
2021/10/10 03:08:49;;;;;;;7.97;3.50;;;;;;;30.76;73.70;100670.25;5065280;27;65742;-36
2021/10/10 03:11:42;;;;;;;4.93;3.42;;;;;;;30.80;73.65;100676.91;5072615;27;70050;-37
2021/10/10 03:14:41;;;;;;;10.98;3.53;;;;;;;30.84;73.53;100676.25;5073662;27;66378;-38
2021/10/10 03:17:25;;;;;;;12.48;3.80;;;;;;;30.80;72.45;100655.25;5066913;27;71100;-38
2021/10/10 03:20:24;;;;;;;5.45;3.25;;;;;;;30.76;73.42;100662.97;5067915;27;66166;-36
2021/10/10 03:23:07;;;;;;;9.30;3.50;;;;;;;30.70;73.11;100631.38;5074337;27;70284;-38
2021/10/10 03:25:48;;;;;;;7.93;2.83;;;;;;;30.86;72.81;100648.94;5057237;27;65621;-38
2021/10/10 03:28:27;;;;;;;6.35;3.28;;;;;;;30.90;72.99;100650.16;5062985;27;71715;-36
2021/10/10 03:31:16;;;;;;;4.65;3.17;;;;;;;30.92;72.86;100629.06;5057835;27;66573;-37
2021/10/10 03:34:08;;;;;;;4.25;3.00;;;;;;;30.93;72.09;100630.75;5062335;27;70108;-37
2021/10/10 03:36:48;;;;;;;7.70;3.20;;;;;;;30.94;72.27;100626.97;5056835;27;66469;-37
2021/10/10 03:39:30;;;;;;;3.92;2.67;;;;;;;30.96;72.57;100629.47;5074594;27;69340;-38
2021/10/10 03:42:05;;;;;;;6.40;3.05;;;;;;;30.94;72.11;100622.38;5057839;27;66210;-38
2021/10/10 03:44:51;;;;;;;6.72;2.90;;;;;;;30.93;71.68;100606.38;5074957;27;70250;-37
2021/10/10 03:47:41;;;;;;;7.28;2.90;;;;;;;31.01;71.79;100621.47;5067070;27;66466;-38
2021/10/10 03:50:24;;;;;;;4.63;2.55;;;;;;;31.02;71.22;100601.47;5077542;27;69729;-38
2021/10/10 03:53:12;;;;;;;6.03;3.30;;;;;;;30.98;70.81;100600.25;5075417;27;66266;-38
2021/10/10 03:55:56;;;;;;;5.57;3.30;;;;;;;31.05;71.62;100591.00;5025949;27;69338;-38
2021/10/10 03:58:40;;;;;;;4.43;3.05;;;;;;;30.78;71.80;100554.44;5086616;27;67078;-39
2021/10/10 04:01:16;;;;;;;5.80;3.40;;;;;;;31.03;71.71;100582.25;5070765;27;70651;-40
2021/10/10 04:04:00;;;;;;;7.10;3.63;;;;;;;31.03;71.40;100568.72;5068492;27;66100;-39
2021/10/10 04:06:51;;;;;;;6.40;2.90;;;;;;;30.99;71.73;100548.56;5076960;27;70102;-38
2021/10/10 04:09:31;;;;;;;8.13;3.08;;;;;;;31.03;71.39;100549.75;5072012;27;64730;-38
2021/10/10 04:12:20;;;;;;;6.45;2.80;;;;;;;31.09;71.00;100548.00;5097418;27;70120;-39
2021/10/10 04:15:01;;;;;;;7.70;3.72;;;;;;;31.10;70.40;100539.66;5079518;27;66210;-38
2021/10/10 04:17:40;;;;;;;4.15;3.30;;;;;;;31.19;70.54;100542.03;5074108;27;70058;-39
2021/10/10 04:20:16;;;;;;;5.80;3.63;;;;;;;31.19;70.23;100531.22;5025323;27;65256;-38
2021/10/10 04:23:10;;;;;;;4.07;2.63;;;;;;;31.22;69.24;100541.59;5092714;27;69451;-38
2021/10/10 04:25:55;;;;;;;4.78;2.70;;;;;;;31.22;69.23;100531.56;5060427;27;66692;-40
2021/10/10 04:28:34;;;;;;;5.63;2.90;;;;;;;31.23;68.53;100521.53;5064836;27;70138;-38
2021/10/10 04:31:18;;;;;;;5.05;2.53;;;;;;;31.30;68.96;100522.28;5077887;27;66414;-38
2021/10/10 04:34:06;;;;;;;4.40;2.50;;;;;;;31.31;69.36;100518.50;5073751;27;70573;-38
2021/10/10 04:36:40;;;;;;;7.93;2.72;;;;;;;31.31;69.08;100513.09;5068707;27;64815;-38
2021/10/10 04:39:16;;;;;;;7.30;2.45;;;;;;;31.33;69.95;100513.69;5074370;27;70277;-38
2021/10/10 04:41:53;;;;;;;3.80;2.72;;;;;;;31.30;69.77;100509.56;5056616;27;66828;-38
2021/10/10 04:44:29;;;;;;;4.03;2.75;;;;;;;31.35;69.86;100498.84;5074617;27;69899;-37
2021/10/10 04:47:09;;;;;;;5.80;2.50;;;;;;;31.38;68.49;100500.31;5051629;28;66238;-38
2021/10/10 04:49:47;;;;;;;5.18;2.72;;;;;;;31.34;69.38;100480.09;5063200;27;70437;-38
2021/10/10 04:52:30;;;;;;;7.18;2.70;;;;;;;31.41;69.02;100480.84;5072054;27;66012;-38
2021/10/10 04:55:04;;;;;;;4.13;2.50;;;;;;;31.39;69.76;100482.97;5071217;27;69318;-38
2021/10/10 04:57:39;;;;;;;3.75;2.50;;;;;;;31.20;68.91;100446.13;5074701;27;66110;-38
2021/10/10 05:00:24;;;;;;;6.22;2.90;;;;;;;31.46;68.54;100464.72;5063463;27;70158;-38
2021/10/10 05:03:25;;;;;;;5.07;3.03;;;;;;;31.15;69.31;100409.75;5087901;27;65700;-38
2021/10/10 05:06:19;;;;;;;5.03;2.90;;;;;;;31.46;69.21;100451.16;5077797;27;69469;-38
2021/10/10 05:08:55;;;;;;;3.25;2.55;;;;;;;31.37;69.46;100428.16;5065391;27;67718;-38
2021/10/10 05:11:31;;;;;;;6.15;3.53;;;;;;;31.49;69.55;100445.28;5060153;27;69570;-38
2021/10/10 05:14:07;;;;;;;8.63;3.20;;;;;;;31.59;69.43;100452.81;5059674;27;65743;-37
2021/10/10 05:16:41;;;;;;;3.75;2.72;;;;;;;31.56;69.37;100432.41;5062351;27;69848;-37
2021/10/10 05:19:20;;;;;;;3.55;2.28;;;;;;;31.60;68.45;100421.94;5076915;27;66376;-38
2021/10/10 05:22:09;;;;;;;5.68;2.63;;;;;;;31.66;68.70;100418.28;5070301;27;69780;-37
2021/10/10 05:24:47;;;;;;;4.25;2.72;;;;;;;31.65;68.99;100411.22;5043804;27;66903;-37
2021/10/10 05:27:55;;;;;;;6.55;3.28;;;;;;;31.67;69.20;100414.50;5068065;27;71091;-37
2021/10/10 05:30:36;;;;;;;7.50;2.47;;;;;;;31.46;68.61;100379.88;5061960;27;63931;-37
2021/10/10 05:33:11;;;;;;;6.40;2.38;;;;;;;31.72;69.01;100420.03;5042851;27;69040;-36
2021/10/10 05:36:07;;;;;;;6.80;2.45;;;;;;;31.65;68.44;100418.50;5056296;27;68031;-36
2021/10/10 05:38:54;;;;;;;9.13;2.72;;;;;;;31.71;68.19;100410.25;5069192;27;68922;-36
2021/10/10 05:41:32;;;;;;;3.55;2.40;;;;;;;31.72;68.30;100411.09;5071079;27;66401;-36
2021/10/10 05:44:20;;;;;;;5.82;2.42;;;;;;;31.78;68.23;100415.56;5069279;27;70345;-39
2021/10/10 05:46:56;;;;;;;6.38;2.35;;;;;;;31.80;68.45;100402.59;5036264;27;66140;-36
2021/10/10 05:49:56;;;;;;;5.10;2.67;;;;;;;31.97;68.51;100403.53;5066322;27;70312;-39
2021/10/10 05:52:39;;;;;;;4.40;2.53;;;;;;;32.04;68.15;100404.22;5052696;27;64989;-37
2021/10/10 05:55:23;;;;;;;7.25;2.63;;;;;;;32.09;67.76;100410.81;5079038;27;70947;-37
2021/10/10 05:58:31;;;;;;;5.00;2.55;;;;;;;32.12;67.30;100394.03;5069149;27;66184;-36
2021/10/10 06:01:07;;;;;;;5.97;2.75;;;;;;;32.19;68.18;100394.75;5060081;27;69455;-39
2021/10/10 06:03:45;;;;;;;3.28;2.40;;;;;;;32.22;68.08;100388.84;5096228;27;66693;-38
2021/10/10 06:06:25;;;;;;;5.20;2.67;;;;;;;32.22;67.71;100386.13;5058836;27;70832;-36
2021/10/10 06:09:10;;;;;;;8.75;2.47;;;;;;;32.25;67.56;100369.34;5059379;27;65943;-35
2021/10/10 06:11:46;;;;;;;4.68;2.30;;;;;;;32.27;67.18;100367.22;5054702;27;68746;-36
2021/10/10 06:14:26;;;;;;;3.15;2.20;;;;;;;32.30;67.71;100355.88;5052930;27;66229;-36
2021/10/10 06:17:07;;;;;;;3.60;2.50;;;;;;;32.35;67.19;100345.13;5043808;27;70692;-37
2021/10/10 06:19:42;;;;;;;9.10;2.80;;;;;;;32.37;66.96;100340.25;5068171;27;66050;-37
2021/10/10 06:22:14;;;;;;;6.47;2.30;;;;;;;32.40;67.28;100342.50;5057389;28;69301;-37
2021/10/10 06:24:57;;;;;;;7.22;2.58;;;;;;;32.47;67.21;100337.78;5071585;27;66295;-37
2021/10/10 06:27:43;;;;;;;3.95;2.47;;;;;;;32.49;66.74;100337.53;5075152;27;70404;-37
2021/10/10 06:30:24;;;;;;;4.75;1.90;;;;;;;32.57;66.60;100334.44;5072046;27;65880;-37
2021/10/10 06:33:04;;;;;;;2.97;1.95;;;;;;;32.56;66.29;100329.22;5064636;27;69548;-37
2021/10/10 06:35:44;;;;;;;2.58;2.08;;;;;;;32.57;66.49;100309.13;5059465;27;66088;-37
2021/10/10 06:38:42;;;;;;;6.10;2.17;;;;;;;32.51;66.43;100305.50;5084224;27;69573;-38
2021/10/10 06:41:24;;;;;;;5.00;2.22;;;;;;;32.58;65.63;100308.09;5080227;27;65791;-37
2021/10/10 06:44:13;;;;;;;2.30;1.60;;;;;;;32.62;65.96;100306.53;5070032;27;70336;-38
2021/10/10 06:46:54;;;;;;;3.47;1.98;;;;;;;32.61;65.87;100300.28;5076834;27;66058;-43
2021/10/10 06:50:00;;;;;;;3.35;1.85;;;;;;;32.38;64.77;100262.38;5065094;27;70011;-37
2021/10/10 06:52:46;;;;;;;5.28;2.10;;;;;;;32.65;65.98;100292.44;5066102;27;66202;-37
2021/10/10 06:55:34;;;;;;;3.58;2.00;;;;;;;32.68;65.38;100283.81;5074138;27;69504;-37
2021/10/10 06:58:22;;;;;;;3.45;1.77;;;;;;;32.63;65.60;100276.41;5078075;27;67052;-37
2021/10/10 07:01:01;;;;;;;3.58;1.90;;;;;;;32.67;65.70;100277.56;5092499;27;69750;-36
2021/10/10 07:03:45;;;;;;;2.50;1.90;;;;;;;32.61;64.82;100262.25;5069847;27;66360;-37
2021/10/10 07:06:55;;;;;;;8.15;1.90;;;;;;;32.51;64.96;100256.66;5076018;27;69980;-36
2021/10/10 07:09:42;;;;;;;2.88;2.10;;;;;;;32.66;65.09;100264.25;5083319;27;66900;-37
2021/10/10 07:12:28;;;;;;;2.15;1.70;;;;;;;32.69;65.20;100263.75;5066742;27;70379;-37
2021/10/10 07:15:19;;;;;;;4.03;2.35;;;;;;;32.61;65.26;100254.09;5076093;27;65514;-39
2021/10/10 07:18:27;;;;;;;2.13;1.50;;;;;;;32.66;64.77;100269.66;5083773;27;69367;-37
2021/10/10 07:22:13;;;;;;;3.72;2.13;;;;;;;32.54;64.61;100258.03;5069493;27;66835;-37
2021/10/10 07:27:43;;;;;;;3.08;2.08;;;;;;;32.62;63.93;100269.31;5077919;27;65550;-37
2021/10/10 07:30:39;;;;;;;4.30;2.10;;;;;;;32.66;64.71;100261.53;5076755;27;71451;-37
2021/10/10 07:33:25;;;;;;;2.83;2.28;;;;;;;32.61;65.10;100245.16;5054085;27;65676;-37
2021/10/10 07:36:24;;;;;;;3.55;1.95;;;;;;;32.61;65.10;100247.84;5059441;27;70136;-36
2021/10/10 07:39:11;;;;;;;4.60;1.77;;;;;;;32.53;63.72;100215.69;5023619;28;66223;-36
2021/10/10 07:41:51;;;;;;;5.05;2.55;;;;;;;32.69;64.24;100231.16;5070298;27;69546;-36
2021/10/10 07:44:30;;;;;;;3.47;1.90;;;;;;;32.71;64.31;100256.19;5068104;27;65486;-36
2021/10/10 07:50:17;;;;;;;8.20;2.20;;;;;;;32.74;64.89;100246.72;5066571;27;66061;-36
2021/10/10 07:52:57;;;;;;;9.05;2.08;;;;;;;32.45;64.82;100192.44;5049967;27;70132;-36
2021/10/10 07:55:43;;;;;;;4.05;2.08;;;;;;;32.75;65.30;100235.59;5081323;27;65481;-36
2021/10/10 07:58:23;;;;;;;;;;;;;;;32.49;65.55;100231.66;5075021;27;71758;-36
2021/10/10 08:00:59;;;;;;;9.25;2.38;;;;;;;32.76;65.51;100242.66;5041015;27;66936;-36
2021/10/10 08:03:41;;;;;;;10.98;2.00;;;;;;;32.76;65.25;100248.09;5074854;27;70577;-36
2021/10/10 08:06:29;;;;;;;4.57;2.60;;;;;;;32.61;65.34;100220.72;5058677;27;65054;-35
2021/10/10 08:09:10;;;;;;;5.63;1.90;;;;;;;32.77;64.96;100244.31;5070788;27;70246;-35
2021/10/10 08:12:11;;;;;;;15.65;2.50;;;;;;;32.76;65.14;100242.66;5040922;27;64934;-36
2021/10/10 08:15:13;;;;;;;17.27;2.30;;;;;;;32.67;64.85;100238.72;5072547;27;69812;-35
2021/10/10 08:17:52;;;;;;;11.05;2.50;;;;;;;32.76;65.42;100231.78;5081363;27;65735;-35
2021/10/10 08:20:30;;;;;;;6.80;2.45;;;;;;;32.73;64.87;100221.44;5060425;27;68987;-36
2021/10/10 08:23:23;;;;;;;18.60;2.95;;;;;;;32.75;64.77;100223.91;5076702;27;66275;-36
2021/10/10 08:26:33;;;;;;;12.32;3.17;;;;;;;32.45;63.98;100178.88;5074160;27;70086;-36
2021/10/10 08:29:14;;;;;;;12.10;3.70;;;;;;;32.73;64.83;100224.13;5058615;27;63626;-36
2021/10/10 08:31:51;;;;;;;15.25;4.68;;;;;;;32.42;64.62;100177.47;5042934;27;70601;-36
2021/10/10 08:34:44;;;;;;;4.85;3.22;;;;;;;32.46;65.07;100189.53;5071774;27;65078;-37
2021/10/10 08:37:31;;;;;;;4.88;3.80;;;;;;;32.67;65.62;100233.28;5056997;27;68179;-37
2021/10/10 08:40:17;;;;;;;11.30;3.33;;;;;;;32.69;65.84;100242.84;5073881;27;66124;-36
2021/10/10 08:43:05;;;;;;;13.23;4.57;;;;;;;32.62;66.68;100239.44;5073881;27;69340;-36
2021/10/10 08:46:14;;;;;;;15.38;5.70;;;;;;;32.65;67.20;100293.28;5059115;27;66631;-37
2021/10/10 08:48:57;;;;;;;16.55;5.93;;;;;;;32.69;67.57;100307.19;5066808;27;68806;-38
2021/10/10 08:52:00;;;;;;;5.65;3.92;;;;;;;32.40;67.34;100252.94;5074800;27;66158;-37
2021/10/10 08:54:52;;;;;;;8.55;4.57;;;;;;;32.65;67.60;100298.72;5075393;27;69186;-37
2021/10/10 08:58:14;;;;;;;5.68;4.07;;;;;;;32.46;67.90;100281.84;5076720;27;66753;-37
2021/10/10 09:01:32;;;;;;;5.60;3.88;;;;;;;32.42;68.49;100290.69;5074554;27;69754;-37
2021/10/10 09:04:08;;;;;;;8.10;4.00;;;;;;;32.39;69.15;100283.84;5078623;27;65794;-37
2021/10/10 09:06:52;;;;;;;10.27;4.50;;;;;;;32.35;70.05;100290.03;5075896;27;69958;-36
2021/10/10 09:09:52;;;;;;;5.43;4.38;;;;;;;32.30;70.15;100282.59;5069672;27;66100;-36
2021/10/10 09:12:33;;;;;;;9.80;3.78;;;;;;;32.20;70.64;100266.13;5050474;27;70418;-37
2021/10/10 09:15:22;;;;;;;8.73;3.65;;;;;;;32.23;70.81;100276.50;5075397;27;65837;-37
2021/10/10 09:18:04;;;;;;;8.10;4.13;;;;;;;31.92;70.95;100227.09;5048456;27;69020;-37
2021/10/10 09:20:50;;;;;;;6.32;3.50;;;;;;;32.19;71.77;100259.06;5078259;27;67025;-36
2021/10/10 09:23:23;;;;;;;11.50;4.28;;;;;;;32.19;71.95;100265.31;5078401;27;70207;-36
2021/10/10 09:26:02;;;;;;;13.70;4.68;;;;;;;32.15;71.87;100257.91;5079082;27;66903;-37
2021/10/10 09:28:58;;;;;;;11.73;4.90;;;;;;;32.10;71.91;100257.81;5048003;27;70157;-37
2021/10/10 09:31:48;;;;;;;12.05;3.90;;;;;;;32.10;72.32;100265.97;5077505;27;66933;-36
2021/10/10 09:34:26;;;;;;;10.65;4.05;;;;;;;31.84;72.70;100230.16;5040422;27;70499;-38
2021/10/10 09:37:29;;;;;;;7.63;3.70;;;;;;;31.79;72.62;100243.66;5077539;27;66376;-36
2021/10/10 09:40:17;;;;;;;13.27;3.90;;;;;;;31.95;72.39;100280.88;5076011;27;69476;-36
2021/10/10 09:43:06;;;;;;;7.38;3.60;;;;;;;31.94;72.20;100281.94;5076343;27;66415;-36
2021/10/10 09:46:24;;;;;;;4.72;4.28;;;;;;;31.86;72.54;100304.00;5082414;27;70159;-36
2021/10/10 09:48:58;;;;;;;5.03;3.63;;;;;;;31.87;72.29;100305.63;5065525;27;66343;-36
2021/10/10 09:51:40;;;;;;;7.78;4.50;;;;;;;31.77;72.75;100298.13;5095904;27;68897;-37
2021/10/10 09:54:16;;;;;;;4.70;4.25;;;;;;;31.84;72.80;100306.09;5093429;27;65525;-36
2021/10/10 09:57:11;;;;;;;6.75;4.90;;;;;;;31.84;73.25;100311.53;5073716;27;70110;-36
2021/10/10 10:00:21;;;;;;;5.55;4.00;;;;;;;31.65;73.50;100291.06;5059728;27;65940;-36
2021/10/10 10:03:11;;;;;;;8.55;5.80;;;;;;;31.73;72.71;100312.38;5056155;28;69745;-37
2021/10/10 10:05:44;;;;;;;8.77;5.72;;;;;;;31.60;72.63;100306.19;5071944;27;65977;-36
2021/10/10 10:08:23;;;;;;;6.68;5.32;;;;;;;31.53;73.03;100313.59;5079860;27;70152;-36
2021/10/10 10:11:03;;;;;;;6.18;5.20;;;;;;;31.56;73.01;100315.84;5079464;27;66075;-36
2021/10/10 10:13:47;;;;;;;7.38;5.20;;;;;;;31.56;73.25;100328.56;5079195;27;70538;-36
2021/10/10 10:16:33;;;;;;;6.77;6.07;;;;;;;31.55;73.51;100308.78;5074839;27;64931;-35
2021/10/10 10:19:23;;;;;;;11.50;6.85;;;;;;;31.44;74.14;100297.97;5081524;27;70020;-36
2021/10/10 10:22:01;;;;;;;9.13;8.07;;;;;;;31.55;74.11;100311.50;5079309;27;65205;-36
2021/10/10 10:24:39;;;;;;;9.20;8.30;;;;;;;31.57;73.99;100317.50;5077643;27;69439;-36
2021/10/10 10:27:16;;;;;;;9.40;8.70;;;;;;;31.57;74.54;100320.22;5059616;27;66193;-36
2021/10/10 10:30:02;;;;;;;9.43;8.50;;;;;;;31.55;74.77;100313.38;5079746;27;69783;-36
2021/10/10 10:32:47;;;;;;;9.13;8.25;;;;;;;31.55;74.65;100307.97;5085150;27;66464;-36
2021/10/10 10:35:41;;;;;;;10.68;7.90;;;;;;;31.54;74.92;100318.00;5082437;27;69798;-36
2021/10/10 10:38:38;;;;;;;9.07;7.15;;;;;;;31.51;75.09;100306.78;5083845;27;66193;-36
2021/10/10 10:42:06;;;;;;;10.07;7.13;;;;;;;31.40;75.06;100311.19;5059579;27;70465;-36
2021/10/10 10:44:51;;;;;;;8.55;7.05;;;;;;;31.48;75.35;100312.69;4993479;28;67090;-36
2021/10/10 10:47:39;;;;;;;7.55;6.85;;;;;;;31.48;74.61;100313.53;5087287;27;70619;-35
2021/10/10 10:50:22;;;;;;;11.80;6.30;;;;;;;31.48;75.19;100310.81;5071079;27;66834;-35
2021/10/10 10:53:03;;;;;;;10.05;6.97;;;;;;;31.46;75.26;100318.34;5075339;27;69317;-36
2021/10/10 10:55:56;;;;;;;6.45;5.85;;;;;;;31.47;74.81;100325.41;5079576;27;66724;-36
2021/10/10 10:58:43;;;;;;;;;;;;;;;31.23;75.84;100329.16;5040620;27;70518;-36
2021/10/10 11:01:20;;;;;;;14.57;7.97;;;;;;;31.43;75.47;100326.97;5060485;27;66711;-36
2021/10/10 11:04:29;;;;;;;11.70;7.60;;;;;;;31.37;75.14;100338.72;5078991;27;70205;-38
2021/10/10 11:07:11;;;;;;;13.10;8.82;;;;;;;31.43;75.28;100343.22;5071881;27;66360;-37
2021/10/10 11:09:57;;;;;;;;;;;;;;;31.19;76.42;100352.38;5077727;27;69320;-37
2021/10/10 11:12:35;;;;;;;10.52;9.45;;;;;;;31.41;75.46;100348.06;5099097;27;65842;-37
2021/10/10 11:15:14;;;;;;;12.00;10.32;;;;;;;31.34;75.19;100344.59;5078143;27;69779;-37
2021/10/10 11:18:03;;;;;;;13.20;10.43;;;;;;;31.44;75.52;100355.69;5076332;27;66095;-37
2021/10/10 11:21:01;;;;;;;16.42;11.85;;;;;;;31.33;75.36;100375.47;5055126;27;69562;-37
2021/10/10 11:23:38;;;;;;;10.82;9.77;;;;;;;31.16;75.04;100327.41;5075824;27;64704;-37
2021/10/10 11:26:14;;;;;;;13.65;10.25;;;;;;;31.40;75.05;100365.38;5060155;27;70906;-37
2021/10/10 11:28:57;;;;;;;12.68;9.50;;;;;;;30.86;75.16;100277.94;5061782;28;65286;-37
2021/10/10 11:31:36;;;;;;;10.38;9.27;;;;;;;31.35;74.98;100365.22;5078362;27;68659;-37
2021/10/10 11:34:24;;;;;;;10.55;9.43;;;;;;;31.37;75.32;100376.66;5069209;27;66294;-37
2021/10/10 11:37:01;;;;;;;10.70;9.70;;;;;;;31.27;75.18;100354.75;5093774;27;69420;-36
2021/10/10 11:39:49;;;;;;;12.10;9.60;;;;;;;30.81;75.00;100281.31;5081680;27;65324;-36
2021/10/10 11:42:22;;;;;;;16.00;10.02;;;;;;;31.33;74.95;100364.63;5081365;27;70188;-36
2021/10/10 11:45:00;;;;;;;11.32;9.13;;;;;;;31.33;75.26;100370.06;5080598;27;65626;-36
2021/10/10 11:48:01;;;;;;;9.95;9.02;;;;;;;31.31;75.18;100372.16;5079675;27;70163;-36
2021/10/10 11:50:36;;;;;;;10.23;9.20;;;;;;;31.30;74.90;100376.75;5071633;27;65431;-36
2021/10/10 11:53:34;;;;;;;9.65;8.60;;;;;;;31.20;74.90;100381.94;5076565;27;70131;-36
2021/10/10 11:56:09;;;;;;;10.05;9.00;;;;;;;31.27;75.04;100387.25;5080020;27;66109;-36
2021/10/10 11:59:33;;;;;;;9.55;8.40;;;;;;;31.25;75.25;100390.19;5077660;27;70508;-36
2021/10/10 12:02:06;;;;;;;9.30;8.50;;;;;;;31.29;75.13;100398.69;5072990;27;66904;-36
2021/10/10 12:05:38;;;;;;;9.52;8.63;;;;;;;31.17;76.08;100401.38;5081019;27;69647;-36
2021/10/10 12:08:23;;;;;;;13.98;9.27;;;;;;;31.29;75.92;100421.19;4995962;28;66096;-39
2021/10/10 12:11:02;;;;;;;10.55;8.63;;;;;;;31.31;76.28;100427.19;5080086;27;69428;-36
2021/10/10 12:13:55;;;;;;;11.05;8.20;;;;;;;31.24;75.93;100431.09;5051640;27;66471;-36
2021/10/10 12:16:53;;;;;;;8.38;7.55;;;;;;;31.29;75.54;100433.94;5077310;27;70421;-37
2021/10/10 12:19:54;;;;;;;8.90;8.00;;;;;;;30.95;75.51;100390.25;5073992;27;65408;-38
2021/10/10 12:22:52;;;;;;;10.95;7.88;;;;;;;31.22;75.61;100449.44;5045436;27;68525;-36
2021/10/10 12:26:00;;;;;;;8.75;7.28;;;;;;;31.23;75.74;100449.22;5071992;27;66799;-37
2021/10/10 12:28:47;;;;;;;13.80;8.25;;;;;;;31.31;75.41;100464.31;5078797;27;70089;-36
2021/10/10 12:31:28;;;;;;;8.80;7.32;;;;;;;31.28;75.97;100471.00;5075655;27;66877;-36
2021/10/10 12:34:29;;;;;;;9.15;8.30;;;;;;;31.27;75.73;100473.97;5075248;27;69158;-36
2021/10/10 12:37:31;;;;;;;10.13;9.18;;;;;;;31.28;75.82;100475.63;5064077;27;66154;-36
2021/10/10 12:40:38;;;;;;;8.90;8.10;;;;;;;31.04;75.39;100450.38;5069427;27;67878;-36
2021/10/10 12:43:44;;;;;;;9.10;8.07;;;;;;;31.19;76.22;100494.09;5056762;27;66512;-37
2021/10/10 12:47:01;;;;;;;9.60;8.48;;;;;;;31.22;76.67;100498.22;5041783;27;70670;-38
2021/10/10 12:49:57;;;;;;;8.68;7.82;;;;;;;31.31;76.88;100507.66;5072719;27;65403;-38
2021/10/10 12:52:39;;;;;;;11.00;8.07;;;;;;;31.30;76.68;100508.72;5063374;27;69941;-38
2021/10/10 12:55:27;;;;;;;10.45;8.18;;;;;;;31.30;76.79;100517.69;5052519;27;66078;-38
2021/10/10 12:58:14;;;;;;;14.07;8.18;;;;;;;31.33;76.28;100527.25;5000980;28;70227;-38
2021/10/10 13:01:05;;;;;;;24.85;9.35;;;;;;;31.28;75.40;100521.69;5007548;28;65798;-38